Time;durP1;ratioP1;P1;durP2;ratioP2;P2;SDS_P1;SDS_P2;PMS_P1;PMS_P2;Temp;Humidity;BMP_temperature;BMP_pressure;BME280_temperature;BME280_humidity;BME280_pressure;Samples;Min_cycle;Max_cycle;Signal;HPM_P1;HPM_P2
2024/03/29 00:01:32;;;;;;;16.40;9.70;;;10.80;99.90;;;;;;6186748;22;20101;-77
2024/03/29 00:03:58;;;;;;;16.58;9.38;;;10.80;99.90;;;;;;6307623;22;19999;-74
2024/03/29 00:06:24;;;;;;;17.52;8.80;;;10.80;99.90;;;;;;6308060;22;19999;-74
2024/03/29 00:08:50;;;;;;;13.07;7.43;;;10.80;99.90;;;;;;6307160;22;20049;-72
2024/03/29 00:11:16;;;;;;;11.32;7.55;;;10.80;99.90;;;;;;6307443;22;20014;-75
2024/03/29 00:13:42;;;;;;;17.38;7.75;;;10.80;99.90;;;;;;6307750;22;20074;-74
2024/03/29 00:16:07;;;;;;;15.70;7.90;;;10.80;99.90;;;;;;6307115;22;19999;-74
2024/03/29 00:18:33;;;;;;;15.57;8.05;;;10.80;99.90;;;;;;6307660;22;19999;-73
2024/03/29 00:20:59;;;;;;;11.98;7.72;;;10.80;99.90;;;;;;6307541;22;20076;-77
2024/03/29 00:23:25;;;;;;;16.23;7.20;;;10.80;99.90;;;;;;6307384;22;19996;-74
2024/03/29 00:25:51;;;;;;;13.70;7.07;;;10.80;99.90;;;;;;6307086;22;20003;-71
2024/03/29 00:28:17;;;;;;;13.70;7.18;;;10.80;99.90;;;;;;6306610;22;20027;-74
2024/03/29 00:30:42;;;;;;;12.30;7.28;;;10.80;99.90;;;;;;6307116;22;20007;-75
2024/03/29 00:33:08;;;;;;;15.80;6.97;;;10.80;99.90;;;;;;6307422;22;20023;-76
2024/03/29 00:35:34;;;;;;;12.35;6.68;;;10.80;99.90;;;;;;6307491;22;20007;-70
2024/03/29 00:38:00;;;;;;;11.82;7.18;;;10.80;99.90;;;;;;6307524;22;19999;-75
2024/03/29 00:40:25;;;;;;;13.38;7.10;;;10.80;99.90;;;;;;6307459;22;20053;-68
2024/03/29 00:42:51;;;;;;;11.70;6.97;;;10.80;99.90;;;;;;6307485;22;19995;-68
2024/03/29 00:45:17;;;;;;;15.52;7.28;;;10.70;99.90;;;;;;6307262;22;20010;-69
2024/03/29 00:47:43;;;;;;;12.68;6.85;;;10.70;99.90;;;;;;6307290;22;20026;-69
2024/03/29 00:50:09;;;;;;;13.50;6.85;;;10.70;99.90;;;;;;6281796;22;20011;-69
2024/03/29 00:52:35;;;;;;;10.35;6.82;;;10.60;99.90;;;;;;6310295;22;20003;-69
2024/03/29 00:55:02;;;;;;;11.23;6.75;;;10.60;99.90;;;;;;6338337;22;20069;-67
2024/03/29 00:57:28;;;;;;;12.77;6.47;;;10.60;99.90;;;;;;6338434;22;20490;-69
2024/03/29 00:59:56;;;;;;;14.48;6.47;;;10.50;99.90;;;;;;6338098;22;19998;-69
2024/03/29 01:02:23;;;;;;;10.70;6.45;;;10.50;99.90;;;;;;6338795;22;20306;-76
2024/03/29 01:04:49;;;;;;;10.60;6.13;;;10.50;99.90;;;;;;6338924;22;20301;-74
2024/03/29 01:07:16;;;;;;;11.23;5.93;;;10.50;99.90;;;;;;6339077;22;19999;-75
2024/03/29 01:09:43;;;;;;;11.15;6.90;;;10.50;99.90;;;;;;6339441;22;20007;-76
2024/03/29 01:12:09;;;;;;;13.75;7.22;;;10.40;99.90;;;;;;6338682;22;20015;-76
2024/03/29 01:21:27;;;;;;;11.20;7.68;;;10.30;99.90;;;;;;6036299;23;20023;-79
2024/03/29 01:28:23;;;;;;;15.80;7.97;;;10.30;99.90;;;;;;5870094;24;20045;-73
2024/03/29 01:34:18;;;;;;;17.85;9.05;;;10.20;99.90;;;;;;5712859;24;20022;-78
2024/03/29 01:37:36;;;;;;;15.68;8.77;;;10.20;99.90;;;;;;5883003;24;20013;-77
2024/03/29 01:40:07;;;;;;;11.60;8.77;;;10.10;99.90;;;;;;5897720;24;20346;-74
2024/03/29 01:42:33;;;;;;;14.27;8.63;;;10.10;99.90;;;;;;6021033;23;20358;-79
2024/03/29 01:44:59;;;;;;;13.15;8.85;;;10.10;99.90;;;;;;6221314;22;20310;-81
2024/03/29 01:47:25;;;;;;;13.52;8.45;;;10.10;99.90;;;;;;6337941;22;19995;-76
2024/03/29 01:49:51;;;;;;;14.15;9.20;;;10.10;99.90;;;;;;6338392;22;20333;-80
2024/03/29 01:52:19;;;;;;;15.38;9.75;;;10.10;99.90;;;;;;6337749;22;20018;-77
2024/03/29 01:54:46;;;;;;;19.33;10.63;;;10.00;99.90;;;;;;6337985;22;20318;-79
2024/03/29 01:57:13;;;;;;;18.25;10.02;;;10.00;99.90;;;;;;6337556;22;20049;-80
2024/03/29 01:59:42;;;;;;;14.05;9.82;;;10.00;99.90;;;;;;6334233;22;20333;-81
2024/03/29 02:02:09;;;;;;;15.38;9.65;;;10.00;99.90;;;;;;6334736;22;19999;-79
2024/03/29 02:04:36;;;;;;;15.27;9.77;;;10.00;99.90;;;;;;6336023;22;20022;-81
2024/03/29 02:07:03;;;;;;;11.52;9.13;;;10.00;99.90;;;;;;6337733;22;19995;-79
2024/03/29 02:09:29;;;;;;;12.27;9.60;;;10.00;99.90;;;;;;6338229;22;20060;-78
2024/03/29 02:11:55;;;;;;;10.80;7.97;;;10.00;99.90;;;;;;6337734;22;20013;-78
2024/03/29 02:14:21;;;;;;;14.55;9.32;;;9.90;99.90;;;;;;6338054;22;20007;-81
2024/03/29 02:16:47;;;;;;;11.83;8.73;;;9.90;99.90;;;;;;6338355;22;20030;-81
2024/03/29 02:19:12;;;;;;;11.67;8.20;;;9.90;99.90;;;;;;6337815;22;20022;-81
2024/03/29 02:21:45;;;;;;;10.55;7.75;;;9.80;99.90;;;;;;6337858;22;20007;-80
2024/03/29 02:24:16;;;;;;;11.48;8.50;;;9.80;99.90;;;;;;6337858;22;19998;-80
2024/03/29 02:26:42;;;;;;;22.70;10.40;;;9.80;99.90;;;;;;6338062;22;20002;-78
2024/03/29 02:29:12;;;;;;;17.08;10.43;;;9.80;99.90;;;;;;6337450;22;20022;-80
2024/03/29 02:31:38;;;;;;;11.17;8.20;;;9.80;99.90;;;;;;6338099;22;20042;-81
2024/03/29 02:34:04;;;;;;;10.33;7.30;;;9.80;99.90;;;;;;6340102;22;20048;-80
2024/03/29 02:36:29;;;;;;;17.23;9.63;;;9.80;99.90;;;;;;6339546;22;20053;-80
2024/03/29 02:38:55;;;;;;;13.37;8.40;;;9.80;99.90;;;;;;6339780;22;20014;-80
2024/03/29 02:41:22;;;;;;;12.57;8.95;;;9.80;99.90;;;;;;6339888;22;20332;-81
2024/03/29 02:43:48;;;;;;;10.13;8.00;;;9.80;99.90;;;;;;6339853;22;20432;-78
2024/03/29 02:46:14;;;;;;;11.63;8.10;;;9.70;99.90;;;;;;6340021;22;20010;-80
2024/03/29 02:48:41;;;;;;;13.40;8.47;;;9.70;99.90;;;;;;6340145;22;20405;-80
2024/03/29 02:51:07;;;;;;;11.13;7.97;;;9.70;99.90;;;;;;6339194;22;20018;-81
2024/03/29 02:53:33;;;;;;;14.13;8.88;;;9.60;99.90;;;;;;6339778;22;20017;-79
2024/03/29 03:14:02;;;;;;;13.70;6.60;;;9.70;99.90;;;;;;6153803;23;20091;-81
2024/03/29 03:16:28;;;;;;;10.52;6.60;;;9.70;99.90;;;;;;6098602;23;20039;-77
2024/03/29 03:19:21;;;;;;;13.20;6.53;;;9.70;99.90;;;;;;6153589;23;20038;-80
2024/03/29 03:21:53;;;;;;;15.32;6.65;;;9.70;99.90;;;;;;6212351;23;20008;-79
2024/03/29 03:24:18;;;;;;;10.00;5.93;;;9.80;99.90;;;;;;6213543;23;20378;-80
2024/03/29 03:26:44;;;;;;;10.27;6.03;;;9.80;99.90;;;;;;6319454;22;20082;-81
2024/03/29 03:29:10;;;;;;;12.43;6.33;;;9.80;99.90;;;;;;6339170;22;19994;-81
2024/03/29 03:31:36;;;;;;;12.50;6.40;;;9.80;99.90;;;;;;6339502;22;20017;-80
2024/03/29 03:34:02;;;;;;;9.05;5.80;;;9.80;99.90;;;;;;6311913;22;20030;-81
2024/03/29 03:36:28;;;;;;;10.95;5.20;;;9.80;99.90;;;;;;6338898;22;20425;-80
2024/03/29 03:38:54;;;;;;;9.57;5.20;;;9.80;99.90;;;;;;6338973;22;19994;-80
2024/03/29 03:41:19;;;;;;;10.93;5.63;;;9.80;99.90;;;;;;6339078;22;20014;-80
2024/03/29 03:43:45;;;;;;;10.30;5.57;;;9.80;99.90;;;;;;6338758;22;20058;-81
2024/03/29 03:46:11;;;;;;;9.50;5.60;;;9.80;99.90;;;;;;6339092;22;20007;-79
2024/03/29 03:48:37;;;;;;;11.35;5.32;;;9.90;99.90;;;;;;6338612;22;19995;-81
2024/03/29 03:51:03;;;;;;;12.37;5.57;;;9.90;99.90;;;;;;6338635;22;20024;-81
2024/03/29 03:53:28;;;;;;;10.75;5.35;;;9.90;99.90;;;;;;6339297;22;20011;-81
2024/03/29 03:55:54;;;;;;;11.85;5.65;;;9.90;99.90;;;;;;6339005;22;20003;-79
2024/03/29 03:58:20;;;;;;;11.23;5.47;;;9.90;99.90;;;;;;6339116;22;20022;-81
2024/03/29 04:00:46;;;;;;;10.67;5.17;;;9.90;99.90;;;;;;6338562;22;20010;-80
2024/03/29 04:03:11;;;;;;;11.10;5.40;;;9.90;99.90;;;;;;6339359;22;19998;-68
2024/03/29 04:05:37;;;;;;;10.05;5.07;;;10.00;99.90;;;;;;6338805;22;20033;-69
2024/03/29 04:08:04;;;;;;;9.27;5.07;;;10.00;99.90;;;;;;6338921;22;20161;-69
2024/03/29 04:10:30;;;;;;;11.82;5.50;;;10.00;99.90;;;;;;6338307;22;20446;-69
2024/03/29 04:12:56;;;;;;;10.75;5.63;;;10.00;99.90;;;;;;6338710;22;20048;-69
2024/03/29 04:15:21;;;;;;;11.45;5.85;;;10.00;99.90;;;;;;6338648;22;20010;-68
2024/03/29 04:17:47;;;;;;;13.07;5.05;;;10.00;99.90;;;;;;6339036;22;20012;-70
2024/03/29 04:20:13;;;;;;;11.43;5.25;;;10.00;99.90;;;;;;6338554;22;19995;-69
2024/03/29 04:22:39;;;;;;;12.35;4.63;;;10.10;99.90;;;;;;6338968;22;20018;-69
2024/03/29 04:25:05;;;;;;;10.35;5.03;;;10.10;99.90;;;;;;6339121;22;19999;-78
2024/03/29 04:27:31;;;;;;;8.40;4.80;;;10.10;99.90;;;;;;6339664;22;19999;-81
2024/03/29 04:29:56;;;;;;;10.15;5.15;;;10.10;99.90;;;;;;6339508;22;20413;-81
2024/03/29 04:32:22;;;;;;;9.23;4.93;;;10.10;99.90;;;;;;6339227;22;20441;-77
2024/03/29 04:34:52;;;;;;;8.73;5.20;;;10.10;99.90;;;;;;6339191;22;20035;-79
2024/03/29 04:51:48;;;;;;;9.55;4.90;;;10.00;99.90;;;;;;5826507;24;20072;-81
2024/03/29 04:58:10;;;;;;;10.80;5.37;;;9.90;99.90;;;;;;5790374;24;20018;-80
2024/03/29 05:04:25;;;;;;;11.48;4.90;;;9.90;99.90;;;;;;5736914;24;20101;-81
2024/03/29 05:06:55;;;;;;;12.47;4.37;;;9.90;99.90;;;;;;6053138;23;20426;-81
2024/03/29 05:09:22;;;;;;;10.27;4.78;;;9.90;99.90;;;;;;6220004;22;20011;-81
2024/03/29 05:11:48;;;;;;;7.00;4.43;;;9.90;99.90;;;;;;6307098;22;20302;-81
2024/03/29 05:14:18;;;;;;;7.10;4.30;;;9.90;99.90;;;;;;6307298;22;20375;-81
2024/03/29 05:16:47;;;;;;;4.95;3.55;;;10.00;99.90;;;;;;6306962;22;20003;-81
2024/03/29 05:19:14;;;;;;;7.93;3.35;;;10.00;99.90;;;;;;6307241;22;20027;-79
2024/03/29 05:21:40;;;;;;;5.22;3.15;;;10.00;99.90;;;;;;6307541;22;20007;-79
2024/03/29 05:24:07;;;;;;;6.73;3.73;;;10.00;99.90;;;;;;6306232;22;19999;-80
2024/03/29 05:26:33;;;;;;;10.35;3.72;;;10.00;99.90;;;;;;6306669;22;20444;-79
2024/03/29 05:28:59;;;;;;;12.07;3.80;;;10.00;99.90;;;;;;6307516;22;20008;-81
2024/03/29 05:31:26;;;;;;;10.57;3.95;;;10.00;99.90;;;;;;6306943;22;20014;-80
2024/03/29 05:33:52;;;;;;;8.88;4.30;;;10.00;99.90;;;;;;6306821;22;20433;-81
2024/03/29 05:36:18;;;;;;;10.65;4.07;;;10.00;99.90;;;;;;6307415;22;20333;-81
2024/03/29 05:38:45;;;;;;;8.68;4.20;;;10.10;99.90;;;;;;6307706;22;20425;-81
2024/03/29 05:41:11;;;;;;;8.90;4.35;;;10.10;99.90;;;;;;6307144;22;20053;-81
2024/03/29 05:43:39;;;;;;;9.50;4.18;;;10.10;99.90;;;;;;6306749;22;20003;-69
2024/03/29 05:46:05;;;;;;;14.77;4.15;;;10.20;99.90;;;;;;6306366;22;20011;-70
2024/03/29 05:48:31;;;;;;;7.97;4.57;;;10.20;99.90;;;;;;6306735;22;20052;-71
2024/03/29 05:50:56;;;;;;;9.38;4.35;;;10.20;99.90;;;;;;6310542;22;20011;-73
2024/03/29 05:53:22;;;;;;;12.05;4.70;;;10.30;99.90;;;;;;6338372;22;20069;-72
2024/03/29 05:55:48;;;;;;;10.43;4.68;;;10.30;99.90;;;;;;6338465;22;20002;-71
2024/03/29 05:58:17;;;;;;;10.55;5.47;;;10.30;99.90;;;;;;6338238;22;20026;-72
2024/03/29 06:00:43;;;;;;;10.88;5.47;;;10.30;99.90;;;;;;6337535;22;20006;-72
2024/03/29 06:03:09;;;;;;;9.85;5.22;;;10.40;99.90;;;;;;6338513;22;20488;-72
2024/03/29 06:05:35;;;;;;;13.70;5.70;;;10.40;99.90;;;;;;6338356;22;20045;-70
2024/03/29 06:08:01;;;;;;;8.52;5.45;;;10.40;99.90;;;;;;6339856;22;19998;-72
2024/03/29 06:10:27;;;;;;;11.48;5.35;;;10.40;99.90;;;;;;6340677;22;20015;-74
2024/03/29 06:12:53;;;;;;;11.70;6.72;;;10.40;99.90;;;;;;6340544;22;19995;-69
2024/03/29 06:18:10;;;;;;;13.02;6.30;;;10.40;99.90;;;;;;6340472;22;20444;-70
2024/03/29 06:39:58;;;;;;;15.93;5.55;;;10.60;99.90;;;;;;6023510;23;20424;-81
2024/03/29 06:45:39;;;;;;;;;;;10.60;99.90;;;;;;6221965;22;20018;-78
2024/03/29 06:48:05;;;;;;;9.77;5.97;;;10.60;99.90;;;;;;6337532;22;19898;-83
2024/03/29 06:50:31;;;;;;;9.18;5.65;;;10.60;99.90;;;;;;6311602;22;20340;-83
2024/03/29 06:52:57;;;;;;;14.07;6.18;;;10.60;99.90;;;;;;6339562;22;20010;-78
2024/03/29 06:55:23;;;;;;;12.15;5.82;;;10.60;99.90;;;;;;6339603;22;20005;-78
2024/03/29 06:57:49;;;;;;;11.05;5.38;;;10.70;99.90;;;;;;6339113;22;20002;-69
2024/03/29 07:00:15;;;;;;;10.32;5.40;;;10.70;99.90;;;;;;6338033;22;20496;-84
2024/03/29 07:02:41;;;;;;;10.80;5.43;;;10.70;99.90;;;;;;6338499;22;20332;-82
2024/03/29 07:05:07;;;;;;;13.40;5.07;;;10.70;99.90;;;;;;6338864;22;20118;-78
2024/03/29 07:07:34;;;;;;;11.70;5.28;;;10.70;99.90;;;;;;6338525;22;20007;-72
2024/03/29 07:09:59;;;;;;;6.93;4.40;;;10.70;99.90;;;;;;6339184;22;20049;-69
2024/03/29 07:12:25;;;;;;;14.18;4.90;;;10.70;99.90;;;;;;6339027;22;20006;-66
2024/03/29 07:14:51;;;;;;;15.25;5.18;;;10.70;99.90;;;;;;6339174;22;19999;-67
2024/03/29 07:17:16;;;;;;;16.27;5.80;;;10.70;99.90;;;;;;6336499;22;19995;-72
2024/03/29 07:19:42;;;;;;;13.70;5.18;;;10.70;99.90;;;;;;6338859;22;19995;-70
2024/03/29 07:22:08;;;;;;;14.27;5.68;;;10.70;99.90;;;;;;6339075;22;19999;-67
2024/03/29 07:24:34;;;;;;;13.63;6.43;;;10.70;99.90;;;;;;6339358;22;19999;-69
2024/03/29 07:26:59;;;;;;;9.98;5.25;;;10.80;99.90;;;;;;6339675;22;19999;-63
2024/03/29 07:29:25;;;;;;;13.48;5.30;;;10.80;99.90;;;;;;6338872;22;20017;-65
2024/03/29 07:31:51;;;;;;;12.45;5.43;;;10.80;99.90;;;;;;6338719;22;20033;-67
2024/03/29 07:34:17;;;;;;;10.00;4.72;;;10.90;99.90;;;;;;6338589;22;20009;-66
2024/03/29 07:36:43;;;;;;;8.55;4.50;;;10.90;99.90;;;;;;6338488;22;20059;-65
2024/03/29 07:39:08;;;;;;;11.80;5.65;;;10.90;99.90;;;;;;6311025;22;20011;-65
2024/03/29 07:41:34;;;;;;;11.25;5.47;;;10.90;99.90;;;;;;6338761;22;20393;-66
2024/03/29 07:44:02;;;;;;;16.25;5.32;;;11.00;99.90;;;;;;6338730;22;20082;-67
2024/03/29 07:46:31;;;;;;;13.90;5.47;;;11.00;99.90;;;;;;6338645;22;20068;-66
2024/03/29 07:48:57;;;;;;;11.00;5.38;;;11.00;99.90;;;;;;6339064;22;20368;-81
2024/03/29 07:51:23;;;;;;;19.52;5.53;;;11.10;99.90;;;;;;6339160;22;20019;-82
2024/03/29 07:53:49;;;;;;;10.25;5.18;;;11.10;99.90;;;;;;6338425;22;20447;-67
2024/03/29 07:56:15;;;;;;;16.80;5.47;;;11.20;99.90;;;;;;6337661;22;19998;-66
2024/03/29 07:58:41;;;;;;;16.60;5.38;;;11.20;99.90;;;;;;6338605;22;20006;-80
2024/03/29 08:11:43;;;;;;;;;;;;;;;;;;;;;
2024/03/29 08:21:20;;;;;;;16.98;8.48;;;11.40;99.90;;;;;;6008414;23;20022;-78
2024/03/29 08:27:13;;;;;;;21.90;7.55;;;11.50;99.90;;;;;;5933957;23;20024;-88
2024/03/29 08:29:44;;;;;;;21.00;7.70;;;11.50;99.90;;;;;;6035737;23;20011;-79
2024/03/29 08:32:10;;;;;;;16.83;7.53;;;11.60;99.90;;;;;;6266333;22;20344;-83
2024/03/29 08:34:37;;;;;;;14.73;6.18;;;11.60;99.90;;;;;;6337628;22;20377;-86
2024/03/29 08:37:03;;;;;;;20.77;6.22;;;11.70;99.90;;;;;;6336643;22;20066;-84
2024/03/29 08:39:32;;;;;;;22.25;7.35;;;11.70;99.90;;;;;;6310924;22;20380;-88
2024/03/29 08:42:10;;;;;;;14.68;5.97;;;11.70;99.90;;;;;;6338807;22;19999;-85
2024/03/29 08:44:36;;;;;;;22.08;6.90;;;11.70;99.90;;;;;;6338880;22;20380;-82
2024/03/29 08:47:02;;;;;;;14.30;6.38;;;11.80;99.90;;;;;;6338865;22;19995;-77
2024/03/29 08:49:29;;;;;;;16.58;6.60;;;11.70;99.90;;;;;;6339392;22;20014;-81
2024/03/29 08:51:59;;;;;;;14.25;5.63;;;11.80;99.90;;;;;;6338669;22;20356;-79
2024/03/29 08:54:25;;;;;;;20.17;6.20;;;11.80;99.90;;;;;;6339076;22;20410;-89
2024/03/29 08:56:50;;;;;;;19.58;7.50;;;11.80;99.90;;;;;;6339341;22;20009;-82
2024/03/29 08:59:16;;;;;;;17.85;6.13;;;11.80;99.90;;;;;;6339096;22;19998;-80
2024/03/29 09:01:45;;;;;;;15.40;6.45;;;11.80;99.90;;;;;;6339016;22;19999;-83
2024/03/29 09:04:11;;;;;;;17.80;6.35;;;11.80;99.90;;;;;;6338706;22;20424;-88
2024/03/29 09:06:38;;;;;;;14.23;6.07;;;11.90;99.90;;;;;;6339041;22;20048;-80
2024/03/29 09:09:07;;;;;;;14.18;6.20;;;11.90;99.90;;;;;;6339246;22;20003;-83
2024/03/29 09:11:33;;;;;;;13.43;5.90;;;11.90;99.90;;;;;;6338703;22;20022;-79
2024/03/29 09:14:01;;;;;;;16.65;6.32;;;12.00;99.90;;;;;;6339043;22;19999;-79
2024/03/29 09:16:27;;;;;;;15.07;5.82;;;12.00;99.90;;;;;;6338737;22;20324;-85
2024/03/29 09:18:54;;;;;;;13.52;6.55;;;12.00;99.90;;;;;;6338746;22;20363;-75
2024/03/29 09:21:20;;;;;;;15.70;5.97;;;12.00;99.90;;;;;;6339245;22;20010;-80
2024/03/29 09:23:48;;;;;;;18.77;6.47;;;12.00;99.90;;;;;;6339028;22;20010;-82
2024/03/29 09:26:15;;;;;;;21.83;7.72;;;12.10;99.90;;;;;;6338474;22;20444;-80
2024/03/29 09:28:41;;;;;;;20.08;7.40;;;12.10;99.90;;;;;;6338287;22;19998;-85
2024/03/29 09:31:07;;;;;;;21.83;6.50;;;12.10;99.90;;;;;;6338285;22;20101;-84
2024/03/29 09:33:33;;;;;;;17.13;6.40;;;12.20;99.90;;;;;;6339904;22;19994;-80
2024/03/29 09:35:59;;;;;;;24.55;6.28;;;12.20;99.90;;;;;;6339365;22;19999;-85
2024/03/29 09:38:26;;;;;;;14.55;5.32;;;12.30;99.90;;;;;;6339291;22;20007;-79
2024/03/29 09:41:02;;;;;;;18.08;6.40;;;12.30;99.90;;;;;;6339394;22;19999;-83
2024/03/29 09:44:11;;;;;;;16.58;6.20;;;12.30;99.90;;;;;;6341500;22;19999;-79
2024/03/29 09:47:31;;;;;;;18.33;6.60;;;12.40;99.90;;;;;;6340936;22;20074;-83
2024/03/29 09:58:32;;;;;;;19.70;6.07;;;12.60;99.90;;;;;;6039228;23;20011;-84
2024/03/29 10:08:12;;;;;;;21.50;6.25;;;12.70;99.90;;;;;;6155146;23;20080;-86
2024/03/29 10:10:39;;;;;;;19.95;6.68;;;12.70;99.90;;;;;;6236482;22;20027;-84
2024/03/29 10:13:05;;;;;;;24.83;6.28;;;12.80;99.90;;;;;;6309281;22;20361;-86
2024/03/29 10:15:37;;;;;;;25.63;6.30;;;12.80;99.90;;;;;;6308960;22;20057;-87
2024/03/29 10:18:03;;;;;;;17.17;5.10;;;12.90;99.90;;;;;;6309210;22;20000;-86
2024/03/29 10:20:29;;;;;;;20.40;4.95;;;12.90;99.90;;;;;;6309189;22;20038;-86
2024/03/29 10:22:57;;;;;;;24.52;5.55;;;13.00;99.90;;;;;;6308917;22;20000;-86
2024/03/29 10:25:23;;;;;;;20.02;5.35;;;13.10;99.90;;;;;;6308843;22;20316;-87
2024/03/29 10:27:49;;;;;;;17.63;4.93;;;13.20;99.90;;;;;;6281694;22;20317;-87
2024/03/29 10:30:19;;;;;;;20.60;6.43;;;13.30;99.90;;;;;;6281649;22;20003;-87
2024/03/29 10:32:45;;;;;;;22.00;6.05;;;13.30;99.90;;;;;;6308672;22;20008;-87
2024/03/29 10:35:11;;;;;;;23.48;5.72;;;13.50;99.90;;;;;;6308808;22;20004;-87
2024/03/29 10:37:40;;;;;;;25.02;4.60;;;13.60;99.90;;;;;;6309545;22;20037;-86
2024/03/29 10:40:10;;;;;;;15.25;4.78;;;13.70;99.90;;;;;;6308889;22;20095;-88
2024/03/29 10:42:39;;;;;;;19.77;5.57;;;13.80;99.90;;;;;;6308672;22;20023;-86
2024/03/29 10:45:08;;;;;;;32.47;6.07;;;13.90;99.90;;;;;;6282302;22;20555;-89
2024/03/29 10:47:34;;;;;;;23.52;5.22;;;13.90;99.90;;;;;;6308835;22;20433;-88
2024/03/29 10:50:00;;;;;;;20.45;4.40;;;13.90;99.90;;;;;;6309762;22;20429;-86
2024/03/29 10:52:27;;;;;;;15.77;4.00;;;13.90;99.90;;;;;;6330667;22;20442;-66
2024/03/29 10:54:56;;;;;;;31.30;5.18;;;13.90;99.90;;;;;;6339528;22;20429;-65
2024/03/29 10:57:27;;;;;;;21.33;3.80;;;13.90;99.90;;;;;;6339653;22;20003;-64
2024/03/29 11:00:18;;;;;;;16.83;3.53;;;14.00;99.90;;;;;;6339928;22;20384;-70
2024/03/29 11:03:03;;;;;;;25.17;3.78;;;14.00;99.90;;;;;;6339576;22;20472;-65
2024/03/29 11:05:32;;;;;;;21.27;3.40;;;14.00;99.90;;;;;;6339790;22;20026;-65
2024/03/29 11:08:01;;;;;;;18.02;3.58;;;14.10;99.90;;;;;;6339909;22;20006;-66
2024/03/29 11:10:36;;;;;;;20.25;4.35;;;14.10;99.90;;;;;;6339521;22;20463;-65
2024/03/29 11:13:39;;;;;;;25.33;4.15;;;14.20;99.90;;;;;;6340426;22;19998;-87
2024/03/29 11:16:05;;;;;;;;;;;14.30;99.90;;;;;;6341183;22;20007;-87
2024/03/29 11:18:31;;;;;;;22.73;3.85;;;14.30;99.90;;;;;;6340513;22;19920;-88
2024/03/29 11:20:59;;;;;;;23.35;4.45;;;14.40;99.90;;;;;;6340522;22;20003;-86
2024/03/29 11:23:27;;;;;;;23.73;5.18;;;14.40;99.90;;;;;;6327256;22;19998;-86
2024/03/29 11:40:27;;;;;;;25.67;4.22;;;14.40;99.90;;;;;;6154373;23;20053;-88
2024/03/29 11:43:57;;;;;;;22.17;4.00;;;14.40;99.90;;;;;;6154244;23;20368;-85
2024/03/29 11:50:05;;;;;;;28.08;3.38;;;14.60;99.90;;;;;;6051723;23;20043;-86
2024/03/29 11:52:31;;;;;;;16.17;2.85;;;14.80;99.90;;;;;;6092411;23;20078;-87
2024/03/29 11:54:58;;;;;;;28.15;4.78;;;14.90;99.90;;;;;;6094882;23;20018;-87
2024/03/29 11:57:24;;;;;;;29.55;3.92;;;15.00;99.90;;;;;;6215808;22;20010;-86
2024/03/29 11:59:50;;;;;;;24.75;3.30;;;15.10;99.90;;;;;;6308165;22;20070;-87
2024/03/29 12:02:16;;;;;;;27.40;5.10;;;15.10;99.90;;;;;;6308213;22;19999;-87
2024/03/29 12:04:42;;;;;;;22.77;3.85;;;15.00;99.90;;;;;;6308180;22;19999;-87
2024/03/29 12:07:08;;;;;;;20.25;3.45;;;15.10;99.90;;;;;;6281322;22;20318;-88
2024/03/29 12:09:34;;;;;;;26.63;4.50;;;15.10;99.90;;;;;;6308009;22;19995;-87
2024/03/29 12:12:05;;;;;;;25.73;4.00;;;15.20;99.90;;;;;;6308095;22;20011;-84
2024/03/29 12:14:35;;;;;;;25.73;4.25;;;15.30;99.90;;;;;;6304788;22;20414;-85
2024/03/29 12:17:01;;;;;;;28.90;4.60;;;15.40;99.90;;;;;;6305155;22;19999;-87
2024/03/29 12:19:27;;;;;;;20.50;3.17;;;15.60;99.90;;;;;;6307567;22;20006;-81
2024/03/29 12:21:54;;;;;;;19.58;3.90;;;15.80;99.90;;;;;;6307880;22;19999;-86
2024/03/29 12:24:20;;;;;;;29.38;3.90;;;15.90;99.90;;;;;;6307700;22;20003;-85
2024/03/29 12:26:49;;;;;;;23.15;4.00;;;16.00;99.90;;;;;;6307731;22;20045;-89
2024/03/29 12:29:15;;;;;;;26.50;4.75;;;16.20;99.90;;;;;;6307587;22;20053;-85
2024/03/29 12:31:41;;;;;;;22.45;3.95;;;16.30;99.90;;;;;;6307954;22;20011;-84
2024/03/29 12:34:07;;;;;;;25.20;3.47;;;16.40;99.90;;;;;;6307795;22;19995;-87
2024/03/29 12:36:33;;;;;;;25.30;4.32;;;16.40;99.90;;;;;;6307931;22;20010;-88
2024/03/29 12:39:02;;;;;;;22.95;3.53;;;16.40;99.90;;;;;;6305133;22;20077;-84
2024/03/29 12:41:32;;;;;;;25.05;4.07;;;16.40;99.90;;;;;;6305012;22;20034;-88
2024/03/29 12:43:59;;;;;;;21.58;3.40;;;16.50;99.90;;;;;;6305764;22;20026;-84
2024/03/29 12:46:26;;;;;;;28.50;3.67;;;16.50;99.90;;;;;;6307326;22;20003;-87
2024/03/29 12:49:01;;;;;;;27.25;3.92;;;16.60;99.90;;;;;;6307322;22;20003;-87
2024/03/29 12:51:30;;;;;;;24.33;3.50;;;16.60;99.90;;;;;;6312776;22;20456;-88
2024/03/29 12:54:03;;;;;;;26.90;3.60;;;16.50;99.90;;;;;;6338653;22;20440;-87
2024/03/29 12:56:29;;;;;;;23.23;4.50;;;16.50;99.90;;;;;;6340162;22;20006;-86
2024/03/29 12:58:56;;;;;;;31.10;4.60;;;16.50;99.90;;;;;;6339835;22;19998;-88
2024/03/29 13:01:22;;;;;;;34.65;5.13;;;16.60;99.90;;;;;;6339195;22;20555;-88
2024/03/29 13:03:48;;;;;;;24.25;3.92;;;16.60;99.90;;;;;;6339630;22;20306;-88
2024/03/29 13:06:22;;;;;;;20.92;4.47;;;16.70;99.90;;;;;;6339112;22;20337;-86
2024/03/29 13:09:29;;;;;;;26.52;4.30;;;16.70;99.90;;;;;;6338701;22;20112;-87
2024/03/29 13:12:36;;;;;;;38.10;6.55;;;16.80;99.90;;;;;;6282304;22;20014;-87
2024/03/29 13:15:51;;;;;;;30.90;5.20;;;16.80;99.90;;;;;;6154954;23;20080;-87
2024/03/29 13:18:45;;;;;;;;;;;;;;;;;;;;;
2024/03/29 13:24:53;;;;;;;29.65;4.63;;;16.90;99.90;;;;;;6211698;23;20458;-82
2024/03/29 13:27:25;;;;;;;24.13;4.57;;;16.90;99.90;;;;;;6242350;23;20013;-87
2024/03/29 13:30:28;;;;;;;27.45;4.72;;;17.00;99.90;;;;;;6243158;23;20070;-88
2024/03/29 13:32:58;;;;;;;28.13;4.95;;;17.00;99.90;;;;;;6217761;23;20442;-86
2024/03/29 13:35:24;;;;;;;32.50;6.13;;;17.00;99.90;;;;;;6243541;23;20502;-87
2024/03/29 13:37:54;;;;;;;26.35;5.22;;;17.00;99.90;;;;;;6245296;22;20004;-81
2024/03/29 13:40:22;;;;;;;31.92;4.25;;;17.10;99.90;;;;;;6310618;22;20318;-83
2024/03/29 13:42:48;;;;;;;38.53;4.80;;;17.10;99.90;;;;;;6339172;22;20337;-87
2024/03/29 13:45:15;;;;;;;31.15;5.88;;;17.20;99.90;;;;;;6338746;22;19999;-87
2024/03/29 13:47:42;;;;;;;34.55;4.95;;;17.20;99.90;;;;;;6338354;22;20003;-86
2024/03/29 13:50:09;;;;;;;33.88;4.78;;;17.20;99.90;;;;;;6338337;22;20070;-86
2024/03/29 13:52:35;;;;;;;42.42;5.88;;;17.20;99.90;;;;;;6338170;22;20068;-87
2024/03/29 13:55:05;;;;;;;27.92;4.50;;;17.20;99.90;;;;;;6337812;22;20317;-86
2024/03/29 13:57:32;;;;;;;31.98;5.43;;;17.20;99.90;;;;;;6338841;22;20042;-86
2024/03/29 13:59:58;;;;;;;35.95;5.43;;;17.30;99.90;;;;;;6338450;22;20508;-87
2024/03/29 14:02:27;;;;;;;42.47;5.75;;;17.30;99.90;;;;;;6338112;22;19999;-86
2024/03/29 14:04:53;;;;;;;32.25;5.18;;;17.30;99.90;;;;;;6338327;22;20333;-84
2024/03/29 14:07:19;;;;;;;31.45;5.10;;;17.40;99.90;;;;;;6338253;22;19995;-86
2024/03/29 14:09:45;;;;;;;34.95;5.45;;;17.40;99.90;;;;;;6338263;22;20026;-85
2024/03/29 14:12:12;;;;;;;41.20;7.20;;;17.40;99.90;;;;;;6338244;22;20328;-85
2024/03/29 14:14:38;;;;;;;35.67;6.15;;;17.50;99.90;;;;;;6338115;22;20044;-86
2024/03/29 14:17:05;;;;;;;34.88;4.75;;;17.50;99.90;;;;;;6342609;22;20090;-65
2024/03/29 14:19:38;;;;;;;32.63;5.13;;;17.50;99.90;;;;;;6338213;22;19999;-70
2024/03/29 14:22:05;;;;;;;35.85;5.68;;;17.50;99.90;;;;;;6337847;22;19995;-66
2024/03/29 14:24:35;;;;;;;32.28;5.30;;;17.40;99.90;;;;;;6337767;22;20003;-70
2024/03/29 14:27:03;;;;;;;28.48;5.30;;;17.40;99.90;;;;;;6337817;22;20357;-66
2024/03/29 14:29:29;;;;;;;24.90;4.60;;;17.30;99.90;;;;;;6339227;22;20056;-66
2024/03/29 14:31:55;;;;;;;27.45;4.50;;;17.30;99.90;;;;;;6339927;22;20007;-67
2024/03/29 14:34:21;;;;;;;27.27;4.90;;;17.30;99.90;;;;;;6339985;22;20060;-70
2024/03/29 14:36:47;;;;;;;39.58;6.68;;;17.30;99.90;;;;;;6339629;22;19999;-84
2024/03/29 14:39:13;;;;;;;33.72;5.35;;;17.30;99.90;;;;;;6340620;22;20077;-87
2024/03/29 14:41:40;;;;;;;42.35;5.72;;;17.30;99.90;;;;;;6340991;22;20033;-81
2024/03/29 14:44:09;;;;;;;39.45;6.40;;;17.30;99.90;;;;;;6340548;22;20048;-82
2024/03/29 14:46:35;;;;;;;35.60;6.25;;;17.30;99.90;;;;;;6340649;22;20075;-84
2024/03/29 14:49:06;;;;;;;49.45;6.88;;;17.40;99.90;;;;;;6340412;22;19995;-85
2024/03/29 14:52:02;;;;;;;44.42;5.82;;;17.30;99.90;;;;;;6339378;22;20068;-85
2024/03/29 14:58:36;;;;;;;35.08;6.90;;;17.30;99.90;;;;;;6340182;22;20010;-86
2024/03/29 15:11:53;;;;;;;46.55;6.68;;;17.10;99.90;;;;;;5957344;24;20905;-82
2024/03/29 15:18:10;;;;;;;40.00;5.20;;;17.00;99.90;;;;;;5926027;24;20047;-82
2024/03/29 15:20:36;;;;;;;41.28;6.07;;;16.90;99.90;;;;;;5988665;23;20004;-82
2024/03/29 15:23:01;;;;;;;39.65;5.75;;;16.80;99.90;;;;;;6223901;22;20329;-84
2024/03/29 15:25:27;;;;;;;40.03;5.90;;;16.80;99.90;;;;;;6339771;22;19995;-85
2024/03/29 15:30:41;;;;;;;38.40;5.20;;;16.70;99.90;;;;;;6340837;22;20349;-78